Terminal Aerodrome Forecast
Issued by NWS

Home | Current Version | Previous Version | Text Only | Print | Product List | Glossary On
Versions: 1 2 3 4 5 6 7 8 9 10 11 12 13 14 15 16 17 18 19 20 21 22 23 24 25 26 27 28 29 30
585
FTUS43 KABR 271120
TAFPIR
TAF
KPIR 271120Z 2712/2812 34004KT P6SM FEW017 BKN024 OVC030
     FM271500 32005KT P6SM BKN040
     FM272100 30010KT P6SM BKN070
     FM280400 28007KT P6SM BKN070=

USA.gov is the U.S. government's official web portal to all federal, state and local government web resources and services.